createdAt,value
2022-09-23T00:00:06.686Z,87.73
2022-09-23T00:01:06.607Z,88.14
2022-09-23T00:02:06.718Z,87.93
2022-09-23T00:03:06.560Z,88.24
2022-09-23T00:04:06.577Z,87.11
2022-09-23T00:05:06.590Z,88.24
2022-09-23T00:06:06.544Z,88.24
2022-09-23T00:07:06.535Z,88.35
2022-09-23T00:08:06.542Z,88.04
2022-09-23T00:09:06.650Z,88.65
2022-09-23T00:10:06.526Z,88.24
2022-09-23T00:11:06.567Z,87.83
2022-09-23T00:12:09.063Z,88.14
2022-09-23T00:13:06.499Z,87.83
2022-09-23T00:14:06.499Z,88.04
2022-09-23T00:15:06.481Z,88.14
2022-09-23T00:16:06.484Z,87.93
2022-09-23T00:17:06.577Z,87.93
2022-09-23T00:18:06.468Z,87.83
2022-09-23T00:19:06.467Z,88.24
2022-09-23T00:20:06.479Z,88.65
2022-09-23T00:21:06.474Z,88.65
2022-09-23T00:22:06.457Z,88.56
2022-09-23T00:23:06.442Z,88.56
2022-09-23T00:24:06.567Z,88.65
2022-09-23T00:25:06.472Z,88.56
2022-09-23T00:26:08.163Z,88.45
2022-09-23T00:27:06.416Z,88.45
2022-09-23T00:28:06.406Z,88.56
2022-09-23T00:29:06.400Z,88.49
2022-09-23T00:30:06.386Z,88.29
2022-09-23T00:31:06.476Z,88.80
2022-09-23T00:32:06.971Z,89.11
2022-09-23T00:33:06.364Z,88.90
2022-09-23T00:34:06.367Z,89.01
2022-09-23T00:35:06.352Z,89.01
2022-09-23T00:36:06.356Z,89.32
2022-09-23T00:37:07.190Z,89.22
2022-09-23T00:38:06.355Z,89.22
2022-09-23T00:39:06.469Z,89.22
2022-09-23T00:40:06.402Z,89.01
2022-09-23T00:41:06.323Z,88.90
2022-09-23T00:42:06.316Z,89.05
2022-09-23T00:43:06.321Z,88.95
2022-09-23T00:44:06.604Z,89.01
2022-09-23T00:45:06.286Z,88.84
2022-09-23T00:46:06.402Z,89.05
2022-09-23T00:47:06.272Z,88.70
2022-09-23T00:48:06.305Z,88.70
2022-09-23T00:49:06.589Z,88.49
2022-09-23T00:50:06.270Z,88.59
2022-09-23T00:51:06.251Z,88.90
2022-09-23T00:52:06.245Z,89.36
2022-09-23T00:53:06.259Z,89.15
2022-09-23T00:54:06.438Z,89.67
2022-09-23T00:55:06.270Z,89.83
2022-09-23T00:56:06.221Z,89.67
2022-09-23T00:57:06.219Z,89.67
2022-09-23T00:58:06.204Z,89.98
2022-09-23T00:59:06.206Z,90.28
2022-09-23T01:00:06.366Z,89.77
2022-09-23T01:01:06.271Z,89.87
2022-09-23T01:02:06.207Z,89.98
2022-09-23T01:03:06.171Z,90.19
2022-09-23T01:04:06.179Z,90.08
2022-09-23T01:05:06.166Z,89.56
2022-09-23T01:06:06.586Z,90.08
2022-09-23T01:07:06.172Z,89.77
2022-09-23T01:08:06.146Z,90.08
2022-09-23T01:09:06.287Z,90.08
2022-09-23T01:10:06.141Z,90.49
2022-09-23T01:11:06.133Z,90.39
2022-09-23T01:12:06.141Z,90.08
2022-09-23T01:13:06.112Z,90.19
2022-09-23T01:14:06.119Z,90.19
2022-09-23T01:15:06.097Z,88.78
2022-09-23T01:16:06.577Z,87.95
2022-09-23T01:17:06.174Z,88.47
2022-09-23T01:18:06.361Z,88.71
2022-09-23T01:19:06.081Z,88.82
2022-09-23T01:20:06.066Z,88.51
2022-09-23T01:21:06.060Z,89.38
2022-09-23T01:22:07.164Z,90.41
2022-09-23T01:23:06.043Z,89.38
2022-09-23T01:24:06.171Z,90.20
2022-09-23T01:25:06.062Z,90.20
2022-09-23T01:26:06.024Z,90.62
2022-09-23T01:27:06.020Z,91.28
2022-09-23T01:28:06.015Z,91.07
2022-09-23T01:29:06.009Z,91.07
2022-09-23T01:30:06.010Z,90.93
2022-09-23T01:31:06.088Z,91.49
2022-09-23T01:32:05.983Z,91.44
2022-09-23T01:33:05.976Z,91.59
2022-09-23T01:34:06.020Z,91.49
2022-09-23T01:35:07.088Z,91.55
2022-09-23T01:36:05.967Z,91.80
2022-09-23T01:37:05.957Z,91.90
2022-09-23T01:38:05.945Z,91.69
2022-09-23T01:39:06.000Z,91.55
2022-09-23T01:40:06.862Z,92.32
2022-09-23T01:41:05.965Z,92.07
2022-09-23T01:42:06.368Z,92.17
2022-09-23T01:43:06.055Z,91.69
2022-09-23T01:44:05.913Z,92.48
2022-09-23T01:45:05.974Z,92.63
2022-09-23T01:46:05.907Z,92.83
2022-09-23T01:47:05.881Z,92.63
2022-09-23T01:48:05.981Z,92.21
2022-09-23T01:49:05.978Z,92.17
2022-09-23T01:50:05.861Z,91.90
2022-09-23T01:51:05.859Z,91.69
2022-09-23T01:52:05.855Z,92.48
2022-09-23T01:53:05.852Z,92.99
2022-09-23T01:54:05.863Z,92.21
2022-09-23T01:55:05.837Z,92.21
2022-09-23T01:56:05.824Z,91.80
2022-09-23T01:57:05.833Z,91.28
2022-09-23T01:58:05.808Z,91.38
2022-09-23T01:59:06.256Z,91.49
2022-09-23T02:00:05.790Z,91.90
2022-09-23T02:01:06.005Z,91.69
2022-09-23T02:02:05.876Z,91.80
2022-09-23T02:03:05.780Z,92.11
2022-09-23T02:04:05.921Z,91.80
2022-09-23T02:05:05.768Z,92.11
2022-09-23T02:06:05.763Z,91.49
2022-09-23T02:07:05.758Z,91.38
2022-09-23T02:08:06.326Z,91.07
2022-09-23T02:09:05.742Z,90.87
2022-09-23T02:10:13.320Z,91.17
2022-09-23T02:11:05.726Z,90.97
2022-09-23T02:12:05.730Z,91.28
2022-09-23T02:13:05.737Z,91.07
2022-09-23T02:14:05.723Z,90.45
2022-09-23T02:15:05.688Z,91.13
2022-09-23T02:16:05.688Z,90.87
2022-09-23T02:17:05.682Z,91.24
2022-09-23T02:18:05.675Z,90.77
2022-09-23T02:19:05.718Z,91.17
2022-09-23T02:20:05.680Z,91.13
2022-09-23T02:21:05.664Z,91.55
2022-09-23T02:22:06.065Z,91.96
2022-09-23T02:23:05.635Z,90.83
2022-09-23T02:24:05.648Z,91.13
2022-09-23T02:25:05.622Z,90.93
2022-09-23T02:26:05.652Z,90.41
2022-09-23T02:27:05.622Z,91.34
2022-09-23T02:28:05.608Z,90.83
2022-09-23T02:29:05.938Z,91.24
2022-09-23T02:30:05.590Z,90.93
2022-09-23T02:31:05.590Z,91.30
2022-09-23T02:32:05.640Z,90.58
2022-09-23T02:33:05.578Z,90.72
2022-09-23T02:34:05.590Z,90.72
2022-09-23T02:35:05.568Z,90.31
2022-09-23T02:36:05.561Z,90.20
2022-09-23T02:37:05.547Z,90.00
2022-09-23T02:38:05.542Z,90.06
2022-09-23T02:39:05.540Z,89.28
2022-09-23T02:40:05.588Z,88.92
2022-09-23T02:41:05.545Z,88.76
2022-09-23T02:42:05.524Z,88.65
2022-09-23T02:43:05.518Z,88.24
2022-09-23T02:44:05.506Z,88.28
2022-09-23T02:45:05.541Z,88.55
2022-09-23T02:46:05.539Z,88.70
2022-09-23T02:47:05.513Z,88.39
2022-09-23T02:48:05.475Z,88.39
2022-09-23T02:49:05.463Z,87.97
2022-09-23T02:50:05.467Z,87.76
2022-09-23T02:51:05.492Z,88.80
2022-09-23T02:52:05.474Z,88.90
2022-09-23T02:53:05.446Z,89.52
2022-09-23T02:54:05.498Z,89.42
2022-09-23T02:55:05.440Z,89.22
2022-09-23T02:56:05.426Z,90.04
2022-09-23T02:57:05.437Z,90.19
2022-09-23T02:58:05.415Z,90.14
2022-09-23T02:59:05.449Z,90.04
2022-09-23T03:00:05.407Z,89.98
2022-09-23T03:01:05.455Z,90.35
2022-09-23T03:02:05.589Z,89.42
2022-09-23T03:03:05.434Z,90.04
2022-09-23T03:04:05.368Z,89.42
2022-09-23T03:05:05.377Z,89.32
2022-09-23T03:06:05.361Z,88.84
2022-09-23T03:07:05.346Z,88.39
2022-09-23T03:08:05.373Z,90.29
2022-09-23T03:09:05.580Z,89.98
2022-09-23T03:10:05.327Z,89.22
2022-09-23T03:11:05.338Z,90.08
2022-09-23T03:12:05.318Z,89.83
2022-09-23T03:13:05.315Z,89.94
2022-09-23T03:14:05.749Z,90.35
2022-09-23T03:15:05.293Z,90.56
2022-09-23T03:16:05.395Z,90.56
2022-09-23T03:17:05.325Z,90.45
2022-09-23T03:18:05.583Z,89.94
2022-09-23T03:19:05.274Z,90.45
2022-09-23T03:20:06.061Z,90.35
2022-09-23T03:21:05.252Z,89.94
2022-09-23T03:22:05.252Z,89.52
2022-09-23T03:23:05.244Z,89.42
2022-09-23T03:24:05.311Z,88.90
2022-09-23T03:25:05.251Z,89.42
2022-09-23T03:26:05.231Z,89.56
2022-09-23T03:27:05.211Z,89.46
2022-09-23T03:28:05.212Z,88.88
2022-09-23T03:29:05.198Z,89.15
2022-09-23T03:30:05.251Z,88.74
2022-09-23T03:31:05.762Z,88.64
2022-09-23T03:32:05.233Z,88.22
2022-09-23T03:33:05.215Z,88.84
2022-09-23T03:34:05.167Z,88.43
2022-09-23T03:35:05.193Z,89.15
2022-09-23T03:36:05.156Z,89.98
2022-09-23T03:37:05.196Z,89.98
2022-09-23T03:38:05.149Z,90.70
2022-09-23T03:39:05.273Z,91.11
2022-09-23T03:40:06.421Z,91.63
2022-09-23T03:41:05.124Z,91.84
2022-09-23T03:42:05.114Z,91.84
2022-09-23T03:43:05.146Z,91.94
2022-09-23T03:44:05.105Z,91.53
2022-09-23T03:45:05.101Z,91.63
2022-09-23T03:46:05.868Z,91.22
2022-09-23T03:47:05.079Z,90.80
2022-09-23T03:48:05.073Z,91.01
2022-09-23T03:49:05.190Z,91.57
2022-09-23T03:50:05.067Z,92.19
2022-09-23T03:51:05.241Z,92.09
2022-09-23T03:52:05.054Z,91.57
2022-09-23T03:53:05.121Z,91.16
2022-09-23T03:54:05.036Z,90.53
2022-09-23T03:55:05.042Z,90.84
2022-09-23T03:56:05.026Z,90.33
2022-09-23T03:57:05.120Z,90.44
2022-09-23T03:58:05.024Z,90.84
2022-09-23T03:59:05.046Z,90.53
2022-09-23T04:00:05.009Z,89.71
2022-09-23T04:01:05.178Z,90.23
2022-09-23T04:02:05.118Z,90.06
2022-09-23T04:03:09.505Z,89.86
2022-09-23T04:04:06.545Z,89.50
2022-09-23T04:05:04.993Z,88.98
2022-09-23T04:06:04.961Z,88.51
2022-09-23T04:07:04.952Z,88.98
2022-09-23T04:08:05.400Z,89.03
2022-09-23T04:09:04.951Z,89.34
2022-09-23T04:10:05.056Z,89.44
2022-09-23T04:11:04.927Z,89.75
2022-09-23T04:12:04.922Z,89.54
2022-09-23T04:13:04.937Z,89.86
2022-09-23T04:14:04.919Z,90.26
2022-09-23T04:15:04.899Z,90.58
2022-09-23T04:16:04.968Z,90.37
2022-09-23T04:17:05.333Z,90.26
2022-09-23T04:18:06.030Z,90.58
2022-09-23T04:19:05.195Z,90.37
2022-09-23T04:20:04.872Z,90.16
2022-09-23T04:21:04.894Z,90.41
2022-09-23T04:22:05.335Z,90.68
2022-09-23T04:23:04.851Z,90.58
2022-09-23T04:24:04.843Z,90.72
2022-09-23T04:25:04.904Z,90.72
2022-09-23T04:26:04.838Z,90.26
2022-09-23T04:27:04.819Z,90.47
2022-09-23T04:28:04.838Z,90.26
2022-09-23T04:29:04.808Z,90.06
2022-09-23T04:30:05.051Z,90.37
2022-09-23T04:31:04.837Z,90.41
2022-09-23T04:32:04.801Z,90.83
2022-09-23T04:33:04.941Z,91.55
2022-09-23T04:34:04.804Z,90.83
2022-09-23T04:35:04.791Z,90.52
2022-09-23T04:36:05.043Z,90.41
2022-09-23T04:37:04.786Z,90.62
2022-09-23T04:38:04.771Z,90.52
2022-09-23T04:39:04.740Z,90.52
2022-09-23T04:40:04.841Z,90.93
2022-09-23T04:41:04.731Z,90.62
2022-09-23T04:42:04.729Z,90.47
2022-09-23T04:43:04.760Z,90.93
2022-09-23T04:44:04.715Z,90.72
2022-09-23T04:45:04.719Z,90.41
2022-09-23T04:46:04.948Z,90.31
2022-09-23T04:47:04.778Z,90.52
2022-09-23T04:48:04.705Z,89.58
2022-09-23T04:49:04.705Z,89.83
2022-09-23T04:50:04.669Z,89.17
2022-09-23T04:51:04.672Z,89.07
2022-09-23T04:52:05.121Z,88.90
2022-09-23T04:53:04.674Z,88.90
2022-09-23T04:54:04.667Z,89.11
2022-09-23T04:55:09.135Z,89.00
2022-09-23T04:56:05.650Z,89.17
2022-09-23T04:57:04.626Z,88.90
2022-09-23T04:58:04.645Z,89.28
2022-09-23T04:59:04.647Z,89.83
2022-09-23T05:00:04.628Z,89.83
2022-09-23T05:01:05.479Z,90.66
2022-09-23T05:02:05.123Z,90.45
2022-09-23T05:03:04.597Z,90.56
2022-09-23T05:04:04.577Z,90.56
2022-09-23T05:05:04.588Z,90.56
2022-09-23T05:06:04.568Z,90.56
2022-09-23T05:07:04.551Z,91.08
2022-09-23T05:08:04.569Z,90.35
2022-09-23T05:09:04.562Z,90.56
2022-09-23T05:10:05.224Z,91.08
2022-09-23T05:11:04.532Z,91.49
2022-09-23T05:12:05.531Z,91.49
2022-09-23T05:13:04.520Z,91.24
2022-09-23T05:14:04.517Z,90.52
2022-09-23T05:15:04.529Z,90.62
2022-09-23T05:16:04.604Z,90.62
2022-09-23T05:17:05.835Z,91.24
2022-09-23T05:18:04.505Z,91.03
2022-09-23T05:19:04.476Z,91.14
2022-09-23T05:20:04.482Z,90.72
2022-09-23T05:21:04.473Z,90.78
2022-09-23T05:22:04.475Z,90.83
2022-09-23T05:23:04.508Z,90.68
2022-09-23T05:24:04.600Z,90.37
2022-09-23T05:25:04.469Z,91.20
2022-09-23T05:26:04.430Z,91.09
2022-09-23T05:27:04.430Z,90.58
2022-09-23T05:28:04.418Z,90.68
2022-09-23T05:29:04.458Z,89.40
2022-09-23T05:30:04.439Z,89.40
2022-09-23T05:31:04.502Z,88.98
2022-09-23T05:32:04.526Z,87.95
2022-09-23T05:33:04.394Z,88.36
2022-09-23T05:34:04.380Z,87.74
2022-09-23T05:35:04.386Z,86.81
2022-09-23T05:36:04.369Z,86.91
2022-09-23T05:37:04.363Z,87.54
2022-09-23T05:38:04.373Z,86.81
2022-09-23T05:39:04.354Z,86.91
2022-09-23T05:40:04.434Z,87.43
2022-09-23T05:41:04.359Z,87.64
2022-09-23T05:42:04.378Z,87.54
2022-09-23T05:43:04.327Z,87.39
2022-09-23T05:44:04.334Z,87.33
2022-09-23T05:45:04.317Z,87.08
2022-09-23T05:46:08.006Z,86.83
2022-09-23T05:47:04.352Z,86.88
2022-09-23T05:48:04.314Z,86.94
2022-09-23T05:49:04.536Z,86.83
2022-09-23T05:50:04.914Z,86.21
2022-09-23T05:51:04.328Z,86.21
2022-09-23T05:52:04.275Z,85.86
2022-09-23T05:53:04.264Z,85.86
2022-09-23T05:54:04.541Z,85.76
2022-09-23T05:55:04.329Z,85.76
2022-09-23T05:57:05.084Z,84.94
2022-09-23T05:58:04.633Z,84.21
2022-09-23T05:59:04.224Z,84.52
2022-09-23T06:00:04.206Z,85.04
2022-09-23T06:01:04.209Z,85.10
2022-09-23T06:02:04.289Z,84.79
2022-09-23T06:03:04.238Z,84.69
2022-09-23T06:04:04.203Z,84.69
2022-09-23T06:05:04.184Z,84.48
2022-09-23T06:06:04.189Z,83.83
2022-09-23T06:07:04.194Z,83.83
2022-09-23T06:08:04.172Z,83.37
2022-09-23T06:09:04.869Z,82.86
2022-09-23T06:10:04.168Z,82.51
2022-09-23T06:11:04.142Z,82.47
2022-09-23T06:12:04.134Z,81.65
2022-09-23T06:13:04.168Z,81.44
2022-09-23T06:14:04.294Z,80.99
2022-09-23T06:15:04.139Z,80.85
2022-09-23T06:16:05.390Z,80.47
2022-09-23T06:17:04.095Z,79.36
2022-09-23T06:18:04.144Z,78.20
2022-09-23T06:19:05.601Z,76.07
2022-09-23T06:20:04.082Z,74.80
2022-09-23T06:21:04.074Z,73.54
2022-09-23T06:22:04.087Z,72.44
2022-09-23T06:23:07.265Z,71.69
2022-09-23T06:24:05.257Z,70.61
2022-09-23T06:25:04.049Z,69.27
2022-09-23T06:26:04.149Z,69.75
2022-09-23T06:27:04.049Z,70.64
2022-09-23T06:28:04.066Z,70.50
2022-09-23T06:29:04.039Z,70.50
2022-09-23T06:30:04.020Z,70.47
2022-09-23T06:31:04.055Z,69.01
2022-09-23T06:32:04.422Z,69.45
2022-09-23T06:33:03.998Z,69.55
2022-09-23T06:34:11.817Z,69.65
2022-09-23T06:35:05.013Z,69.82
2022-09-23T06:36:03.971Z,70.98
2022-09-23T06:37:16.271Z,71.39
2022-09-23T06:38:04.952Z,71.45
2022-09-23T06:39:03.945Z,72.04
2022-09-23T06:40:04.038Z,70.20
2022-09-23T06:41:03.934Z,70.20
2022-09-23T06:42:03.920Z,70.29
2022-09-23T06:43:03.976Z,70.26
2022-09-23T06:44:03.915Z,70.09
2022-09-23T06:45:03.947Z,70.20
2022-09-23T06:46:04.112Z,70.06
2022-09-23T06:47:03.917Z,69.85
2022-09-23T06:48:03.903Z,70.16
2022-09-23T06:49:03.919Z,69.62
2022-09-23T06:50:03.878Z,69.65
2022-09-23T06:51:03.858Z,68.84
2022-09-23T06:52:03.860Z,68.60
2022-09-23T06:53:03.853Z,68.46
2022-09-23T06:54:03.842Z,68.16
2022-09-23T06:55:03.851Z,66.69
2022-09-23T06:56:03.822Z,66.66
2022-09-23T06:57:03.817Z,65.92
2022-09-23T06:58:03.816Z,66.09
2022-09-23T06:59:03.830Z,64.97
2022-09-23T07:00:03.797Z,65.22
2022-09-23T07:01:03.834Z,64.78
2022-09-23T07:02:03.884Z,64.03
2022-09-23T07:03:03.864Z,63.12
2022-09-23T07:04:03.777Z,62.51
2022-09-23T07:05:03.821Z,62.51
2022-09-23T07:06:03.761Z,62.71
2022-09-23T07:07:03.815Z,62.63
2022-09-23T07:08:03.746Z,63.76
2022-09-23T07:09:03.733Z,63.04
2022-09-23T07:10:03.732Z,63.79
2022-09-23T07:11:03.739Z,63.99
2022-09-23T07:12:03.730Z,63.61
2022-09-23T07:13:03.730Z,64.84
2022-09-23T07:14:03.701Z,64.22
2022-09-23T07:15:03.701Z,64.36
2022-09-23T07:16:04.178Z,65.07
2022-09-23T07:17:03.706Z,65.48
2022-09-23T07:18:03.690Z,65.81
2022-09-23T07:19:03.673Z,65.92
2022-09-23T07:20:03.683Z,66.33
2022-09-23T07:21:03.661Z,66.33
2022-09-23T07:22:03.709Z,66.42
2022-09-23T07:23:03.644Z,65.92
2022-09-23T07:24:03.642Z,65.68
2022-09-23T07:25:03.632Z,65.45
2022-09-23T07:26:03.644Z,64.87
2022-09-23T07:27:03.614Z,63.76
2022-09-23T07:28:03.640Z,63.45
2022-09-23T07:29:03.605Z,63.73
2022-09-23T07:30:03.658Z,62.17
2022-09-23T07:31:03.627Z,62.45
2022-09-23T07:32:13.319Z,61.10
2022-09-23T07:33:14.645Z,61.14
2022-09-23T07:34:04.659Z,59.56
2022-09-23T07:35:03.579Z,59.23
2022-09-23T07:36:03.549Z,59.50
2022-09-23T07:37:03.704Z,57.86
2022-09-23T07:38:03.544Z,57.22
2022-09-23T07:39:03.595Z,55.73
2022-09-23T07:40:03.648Z,56.74
2022-09-23T07:41:03.515Z,56.10
2022-09-23T07:42:03.562Z,56.41
2022-09-23T07:43:03.506Z,56.01
2022-09-23T07:44:03.506Z,56.71
2022-09-23T07:45:03.478Z,56.38
2022-09-23T07:46:03.622Z,56.28
2022-09-23T07:47:03.501Z,57.17
2022-09-23T07:48:03.459Z,55.85
2022-09-23T07:49:03.475Z,55.77
2022-09-23T07:50:03.456Z,56.79
2022-09-23T07:51:03.433Z,57.45
2022-09-23T07:52:03.765Z,57.17
2022-09-23T07:53:03.435Z,58.22
2022-09-23T07:54:03.428Z,58.92
2022-09-23T07:55:03.420Z,58.80
2022-09-23T07:56:03.412Z,57.88
2022-09-23T07:57:03.414Z,57.65
2022-09-23T07:58:03.402Z,58.22
2022-09-23T07:59:03.494Z,58.92
2022-09-23T08:00:03.384Z,58.49
2022-09-23T08:01:03.380Z,58.18
2022-09-23T08:02:03.420Z,57.45
2022-09-23T08:03:03.441Z,57.04
2022-09-23T08:04:03.373Z,57.65
2022-09-23T08:05:03.486Z,57.28
2022-09-23T08:06:03.340Z,58.65
2022-09-23T08:07:03.395Z,58.88
2022-09-23T08:08:03.317Z,59.56
2022-09-23T08:09:03.393Z,58.95
2022-09-23T08:10:03.327Z,58.85
2022-09-23T08:11:10.360Z,57.91
2022-09-23T08:12:03.298Z,57.48
2022-09-23T08:13:03.336Z,56.64
2022-09-23T08:14:03.300Z,56.86
2022-09-23T08:15:03.277Z,54.69
2022-09-23T08:16:03.351Z,54.28
2022-09-23T08:17:03.264Z,53.96
2022-09-23T08:18:03.265Z,53.75
2022-09-23T08:20:03.247Z,52.87
2022-09-23T08:21:03.268Z,53.00
2022-09-23T08:22:03.244Z,52.64
2022-09-23T08:23:03.464Z,49.98
2022-09-23T08:24:03.353Z,48.69
2022-09-23T08:25:03.711Z,48.61
2022-09-23T08:26:03.206Z,50.15
2022-09-23T08:27:03.193Z,49.95
2022-09-23T08:28:03.240Z,50.33
2022-09-23T08:29:03.184Z,49.19
2022-09-23T08:30:03.172Z,50.02
2022-09-23T08:31:03.315Z,50.02
2022-09-23T08:32:03.162Z,49.82
2022-09-23T08:33:03.163Z,50.08
2022-09-23T08:34:03.308Z,48.97
2022-09-23T08:35:03.176Z,47.42
2022-09-23T08:36:03.575Z,48.02
2022-09-23T08:37:03.192Z,47.92
2022-09-23T08:38:03.180Z,48.02
2022-09-23T08:39:03.115Z,47.70
2022-09-23T08:40:03.110Z,47.82
2022-09-23T08:41:03.132Z,47.50
2022-09-23T08:42:03.087Z,47.19
2022-09-23T08:43:03.091Z,46.81
2022-09-23T08:44:03.215Z,47.19
2022-09-23T08:45:03.081Z,46.39
2022-09-23T08:46:03.117Z,47.50
2022-09-23T08:47:03.094Z,46.29
2022-09-23T08:48:03.054Z,47.80
2022-09-23T08:49:03.060Z,47.70
2022-09-23T08:50:03.087Z,47.72
2022-09-23T08:51:03.033Z,48.52
2022-09-23T08:52:03.057Z,48.10
2022-09-23T08:53:03.048Z,47.30
2022-09-23T08:54:03.102Z,48.55
2022-09-23T08:55:03.014Z,49.80
2022-09-23T08:56:03.000Z,50.43
2022-09-23T08:57:03.019Z,49.57
2022-09-23T08:58:26.759Z,50.78
2022-09-23T08:59:03.985Z,48.95
2022-09-23T09:00:02.985Z,49.10
2022-09-23T09:01:03.013Z,48.28
2022-09-23T09:02:02.970Z,47.45
2022-09-23T09:03:02.991Z,46.45
2022-09-23T09:04:23.954Z,46.45
2022-09-23T09:05:02.943Z,46.42
2022-09-23T09:06:02.960Z,46.53
2022-09-23T09:07:24.676Z,46.42
2022-09-23T09:08:04.005Z,46.65
2022-09-23T09:09:03.018Z,46.45
2022-09-23T09:10:02.914Z,45.92
2022-09-23T09:11:02.903Z,45.62
2022-09-23T09:12:03.329Z,46.33
2022-09-23T09:13:02.890Z,46.04
2022-09-23T09:14:02.910Z,46.27
2022-09-23T09:15:02.886Z,46.45
2022-09-23T09:16:02.926Z,46.12
2022-09-23T09:17:02.941Z,46.20
2022-09-23T09:18:02.887Z,45.78
2022-09-23T09:19:02.911Z,44.86
2022-09-23T09:20:02.859Z,44.88
2022-09-23T09:21:03.175Z,46.11
2022-09-23T09:22:02.824Z,45.80
2022-09-23T09:23:02.825Z,45.50
2022-09-23T09:24:02.938Z,45.48
2022-09-23T09:25:02.945Z,45.88
2022-09-23T09:26:02.805Z,45.14
2022-09-23T09:27:02.795Z,45.04
2022-09-23T09:28:02.837Z,45.04
2022-09-23T09:29:17.159Z,45.12
2022-09-23T09:30:03.780Z,45.00
2022-09-23T09:31:02.933Z,43.95
2022-09-23T09:32:02.763Z,43.55
2022-09-23T09:33:02.771Z,42.71
2022-09-23T09:34:02.788Z,43.29
2022-09-23T09:35:02.751Z,42.87
2022-09-23T09:36:02.727Z,41.17
2022-09-23T09:37:06.845Z,41.39
2022-09-23T09:38:02.810Z,42.41
2022-09-23T09:39:03.052Z,42.02
2022-09-23T09:40:02.710Z,42.91
2022-09-23T09:41:02.920Z,43.71
2022-09-23T09:42:02.687Z,42.79
2022-09-23T09:43:02.692Z,41.24
2022-09-23T09:44:02.740Z,41.50
2022-09-23T09:45:02.676Z,40.86
2022-09-23T09:46:02.660Z,39.63
2022-09-23T09:47:03.622Z,38.43
2022-09-23T09:48:02.697Z,37.74
2022-09-23T09:49:02.761Z,38.40
2022-09-23T09:50:02.628Z,37.79
2022-09-23T09:51:02.626Z,36.88
2022-09-23T09:52:02.777Z,37.07
2022-09-23T09:53:02.585Z,37.07
2022-09-23T09:54:02.559Z,38.09
2022-09-23T09:55:02.596Z,37.82
2022-09-23T09:56:05.310Z,39.37
2022-09-23T09:57:02.562Z,39.89
2022-09-23T09:58:02.607Z,38.61
2022-09-23T09:59:02.572Z,39.31
2022-09-23T10:00:02.797Z,39.69
2022-09-23T10:01:02.550Z,38.54
2022-09-23T10:02:02.484Z,38.18
2022-09-23T10:03:02.478Z,38.07
2022-09-23T10:04:02.464Z,36.84
2022-09-23T10:05:02.470Z,35.85
2022-09-23T10:06:03.099Z,35.86
2022-09-23T10:07:02.440Z,35.85
2022-09-23T10:08:02.449Z,35.91
2022-09-23T10:09:02.479Z,34.06
2022-09-23T10:10:15.915Z,34.86
2022-09-23T10:11:04.799Z,36.10
2022-09-23T10:12:02.415Z,36.13
2022-09-23T10:13:02.430Z,36.75
2022-09-23T10:14:02.396Z,38.16
2022-09-23T10:15:02.420Z,37.43
2022-09-23T10:16:02.378Z,37.39
2022-09-23T10:17:03.129Z,35.77
2022-09-23T10:18:02.382Z,34.66
2022-09-23T10:19:02.412Z,35.25
2022-09-23T10:20:02.365Z,35.29
2022-09-23T10:21:02.354Z,35.31
2022-09-23T10:22:02.343Z,36.23
2022-09-23T10:23:02.372Z,35.75
2022-09-23T10:24:02.325Z,35.83
2022-09-23T10:25:02.330Z,36.20
2022-09-23T10:26:02.320Z,35.69
2022-09-23T10:27:02.307Z,34.73
2022-09-23T10:28:06.080Z,35.34
2022-09-23T10:29:04.416Z,35.94
2022-09-23T10:30:02.288Z,37.11
2022-09-23T10:31:02.363Z,35.64
2022-09-23T10:32:02.275Z,36.25
2022-09-23T10:33:02.276Z,37.16
2022-09-23T10:34:02.267Z,35.57
2022-09-23T10:35:02.901Z,37.10
2022-09-23T10:36:02.276Z,36.88
2022-09-23T10:37:02.237Z,35.41
2022-09-23T10:38:02.246Z,36.54
2022-09-23T10:39:02.364Z,38.25
2022-09-23T10:40:02.222Z,39.16
2022-09-23T10:41:03.070Z,39.46
2022-09-23T10:42:02.218Z,39.36
2022-09-23T10:43:02.205Z,39.14
2022-09-23T10:44:02.195Z,37.47
2022-09-23T10:45:02.258Z,38.86
2022-09-23T10:46:02.247Z,39.06
2022-09-23T10:47:02.605Z,38.54
2022-09-23T10:48:02.167Z,39.53
2022-09-23T10:49:02.158Z,38.54
2022-09-23T10:50:02.148Z,40.36
2022-09-23T10:51:02.149Z,37.87
2022-09-23T10:52:02.403Z,38.76
2022-09-23T10:53:02.141Z,38.89
2022-09-23T10:54:02.133Z,38.89
2022-09-23T10:55:02.122Z,39.26
2022-09-23T10:56:02.109Z,37.95
2022-09-23T10:57:02.136Z,37.79
2022-09-23T10:58:02.132Z,39.56
2022-09-23T10:59:02.113Z,39.04
2022-09-23T11:00:02.089Z,38.41
2022-09-23T11:01:02.143Z,37.10
2022-09-23T11:02:02.121Z,36.07
2022-09-23T11:03:02.957Z,36.17
2022-09-23T11:04:02.181Z,35.97
2022-09-23T11:05:02.110Z,36.77
2022-09-23T11:06:02.848Z,36.22
2022-09-23T11:07:02.027Z,36.92
2022-09-23T11:08:02.028Z,38.01
2022-09-23T11:09:02.013Z,38.45
2022-09-23T11:10:02.030Z,38.53
2022-09-23T11:11:02.011Z,38.59
2022-09-23T11:12:02.013Z,37.26
2022-09-23T11:13:01.986Z,36.27
2022-09-23T11:14:02.019Z,37.15
2022-09-23T11:15:02.013Z,35.64
2022-09-23T11:16:02.091Z,36.05
2022-09-23T11:17:02.043Z,35.52
2022-09-23T11:18:02.959Z,35.52
2022-09-23T11:19:01.973Z,35.13
2022-09-23T11:20:01.941Z,35.62
2022-09-23T11:21:02.607Z,34.23
2022-09-23T11:22:02.404Z,33.73
2022-09-23T11:23:01.923Z,34.31
2022-09-23T11:24:02.018Z,34.12
2022-09-23T11:25:01.912Z,33.94
2022-09-23T11:26:01.901Z,34.00
2022-09-23T11:27:01.909Z,35.50
2022-09-23T11:28:01.890Z,34.13
2022-09-23T11:29:02.157Z,35.44
2022-09-23T11:30:01.870Z,35.52
2022-09-23T11:31:02.544Z,35.34
2022-09-23T11:32:01.871Z,35.27
2022-09-23T11:34:01.858Z,34.61
2022-09-23T11:35:01.850Z,34.17
2022-09-23T11:36:01.839Z,32.20
2022-09-23T11:37:01.838Z,32.78
2022-09-23T11:38:01.864Z,31.57
2022-09-23T11:39:02.260Z,33.65
2022-09-23T11:40:01.809Z,33.44
2022-09-23T11:41:01.873Z,32.24
2022-09-23T11:42:01.801Z,31.56
2022-09-23T11:43:01.826Z,30.88
2022-09-23T11:44:01.837Z,33.21
2022-09-23T11:45:02.014Z,32.12
2022-09-23T11:46:01.829Z,33.54
2022-09-23T11:47:01.775Z,33.64
2022-09-23T11:48:02.030Z,33.47
2022-09-23T11:49:01.779Z,33.75
2022-09-23T11:50:01.758Z,34.03
2022-09-23T11:51:01.751Z,33.34
2022-09-23T11:52:01.757Z,33.42
2022-09-23T11:53:01.727Z,32.81
2022-09-23T11:54:02.530Z,31.72
2022-09-23T11:55:04.758Z,32.31
2022-09-23T11:56:02.718Z,32.33
2022-09-23T11:57:01.701Z,33.22
2022-09-23T11:58:01.810Z,33.21
2022-09-23T11:59:01.763Z,33.49
2022-09-23T12:00:01.727Z,32.71
2022-09-23T12:01:01.739Z,32.42
2022-09-23T12:02:13.073Z,33.87
2022-09-23T12:03:05.995Z,33.59
2022-09-23T12:04:13.498Z,33.39
2022-09-23T12:05:03.807Z,34.38
2022-09-23T12:06:01.820Z,34.48
2022-09-23T12:07:01.667Z,34.17
2022-09-23T12:08:01.632Z,34.53
2022-09-23T12:09:01.631Z,32.21
2022-09-23T12:10:01.631Z,33.26
2022-09-23T12:11:01.779Z,31.45
2022-09-23T12:12:01.603Z,29.90
2022-09-23T12:13:01.592Z,30.98
2022-09-23T12:14:01.590Z,30.88
2022-09-23T12:15:01.613Z,30.99
2022-09-23T12:16:01.573Z,31.21
2022-09-23T12:17:01.685Z,31.31
2022-09-23T12:18:01.559Z,31.20
2022-09-23T12:19:01.549Z,30.80
2022-09-23T12:20:01.566Z,31.92
2022-09-23T12:21:02.000Z,32.94
2022-09-23T12:22:01.528Z,34.17
2022-09-23T12:23:01.530Z,34.28
2022-09-23T12:24:01.513Z,33.39
2022-09-23T12:25:01.510Z,34.08
2022-09-23T12:26:01.521Z,33.00
2022-09-23T12:27:01.518Z,33.35
2022-09-23T12:28:01.492Z,35.46
2022-09-23T12:29:01.483Z,36.47
2022-09-23T12:30:01.474Z,36.89
2022-09-23T12:31:01.576Z,37.51
2022-09-23T12:32:01.472Z,37.19
2022-09-23T12:33:01.538Z,37.88
2022-09-23T12:34:01.595Z,37.62
2022-09-23T12:35:01.437Z,38.04
2022-09-23T12:36:01.504Z,37.82
2022-09-23T12:37:01.558Z,37.82
2022-09-23T12:38:01.416Z,37.94
2022-09-23T12:39:01.474Z,37.76
2022-09-23T12:40:01.413Z,39.18
2022-09-23T12:41:01.389Z,38.46
2022-09-23T12:42:01.391Z,38.74
2022-09-23T12:43:02.258Z,38.82
2022-09-23T12:44:01.374Z,37.24
2022-09-23T12:45:01.382Z,37.54
2022-09-23T12:46:02.700Z,38.46
2022-09-23T12:47:01.513Z,38.46
2022-09-23T12:48:01.349Z,39.26
2022-09-23T12:49:01.366Z,38.92
2022-09-23T12:50:01.350Z,38.52
2022-09-23T12:51:01.327Z,38.40
2022-09-23T12:52:01.315Z,37.10
2022-09-23T12:53:01.352Z,36.71
2022-09-23T12:54:01.412Z,37.82
2022-09-23T12:55:01.342Z,37.52